createdAt,value
2022-09-28T00:03:40.357Z,36.43
2022-09-28T00:23:40.666Z,36.51
2022-09-28T00:43:40.591Z,36.57
2022-09-28T01:03:40.555Z,36.58
2022-09-28T01:23:40.562Z,36.6
2022-09-28T01:43:40.537Z,36.61
2022-09-28T02:03:40.514Z,36.62
2022-09-28T02:23:40.501Z,36.63
2022-09-28T02:43:40.486Z,36.63
2022-09-28T03:03:40.465Z,36.63
2022-09-28T03:23:40.439Z,36.62
2022-09-28T03:43:40.434Z,36.62
2022-09-28T04:03:40.415Z,36.61
2022-09-28T04:23:40.129Z,36.6
2022-09-28T04:43:40.359Z,36.58
2022-09-28T05:03:40.355Z,36.58
2022-09-28T05:23:40.356Z,36.56
2022-09-28T05:43:40.312Z,36.55
2022-09-28T06:03:40.311Z,36.55
2022-09-28T06:23:40.765Z,36.53
2022-09-28T06:43:40.238Z,36.51
2022-09-28T07:03:40.244Z,36.48
2022-09-28T07:23:48.295Z,36.46
2022-09-28T07:43:40.215Z,36.43
2022-09-28T08:43:40.144Z,36.35
2022-09-28T09:03:40.092Z,36.32
2022-09-28T09:23:40.108Z,36.3
2022-09-28T09:43:40.041Z,36.28
2022-09-28T10:03:40.043Z,36.23
2022-09-28T10:23:40.017Z,36.17
2022-09-28T10:43:39.732Z,36.13
2022-09-28T11:03:40.012Z,36.09
2022-09-28T11:23:39.940Z,36.05
2022-09-28T11:43:39.928Z,35.99
2022-09-28T12:03:39.930Z,35.92
2022-09-28T12:23:39.822Z,35.85
2022-09-28T12:43:39.815Z,35.79
2022-09-28T13:03:39.807Z,35.74
2022-09-28T13:23:39.778Z,35.68
2022-09-28T14:03:39.720Z,35.56
2022-09-28T14:23:39.665Z,35.53
2022-09-28T14:43:39.640Z,35.47
2022-09-28T15:03:39.597Z,35.41
2022-09-28T15:23:39.578Z,35.34
2022-09-28T15:43:39.536Z,35.28
2022-09-28T16:03:39.552Z,35.23
2022-09-28T16:23:39.478Z,35.19
2022-09-28T16:43:39.460Z,35.15
2022-09-28T17:03:39.472Z,35.12
2022-09-28T17:23:39.383Z,35.09
2022-09-28T17:43:39.388Z,35.06
2022-09-28T18:03:39.360Z,35.03
2022-09-28T18:23:39.336Z,35
2022-09-28T18:43:39.334Z,34.97
2022-09-28T19:03:39.293Z,34.94
2022-09-28T19:23:39.278Z,34.91
2022-09-28T19:43:39.249Z,34.89
2022-09-28T20:03:39.217Z,34.86
2022-09-28T20:23:39.193Z,34.84
2022-09-28T20:43:39.203Z,34.82
2022-09-28T21:03:39.176Z,34.8
2022-09-28T21:23:39.167Z,34.77
2022-09-28T21:43:38.522Z,34.74
2022-09-28T22:03:38.851Z,34.7
2022-09-28T22:23:39.099Z,34.67
2022-09-28T22:43:39.092Z,34.65
2022-09-28T23:23:39.071Z,34.61
2022-09-28T23:43:38.809Z,34.59
